Time;durP1;ratioP1;P1;durP2;ratioP2;P2;SDS_P1;SDS_P2;PMS_P1;PMS_P2;Temp;Humidity;BMP_temperature;BMP_pressure;BME280_temperature;BME280_humidity;BME280_pressure;Samples;Min_cycle;Max_cycle;Signal;HPM_P1;HPM_P2
2023/10/23 00:02:24;;;;;;;1.80;1.65;;;12.80;77.90;;;;;;5069243;28;20028;-68
2023/10/23 00:04:49;;;;;;;2.17;1.42;;;12.70;77.90;;;;;;5063738;28;20075;-68
2023/10/23 00:07:15;;;;;;;1.52;1.27;;;12.70;77.90;;;;;;5066745;28;20039;-68
2023/10/23 00:09:41;;;;;;;1.80;1.48;;;12.70;77.90;;;;;;5064973;28;20048;-68
2023/10/23 00:12:08;;;;;;;1.60;1.35;;;12.70;77.90;;;;;;5067462;28;20065;-68
2023/10/23 00:14:34;;;;;;;1.80;1.30;;;12.60;77.80;;;;;;5057611;28;20021;-68
2023/10/23 00:17:00;;;;;;;2.40;1.42;;;12.60;77.80;;;;;;5063247;28;20035;-68
2023/10/23 00:19:26;;;;;;;1.83;1.30;;;12.60;77.80;;;;;;5065925;28;20033;-68
2023/10/23 00:21:52;;;;;;;2.13;1.92;;;12.60;77.90;;;;;;5068013;28;20033;-68
2023/10/23 00:24:17;;;;;;;3.47;1.70;;;12.50;77.80;;;;;;5077204;28;20406;-68
2023/10/23 00:26:43;;;;;;;2.58;1.35;;;12.50;77.70;;;;;;5061120;28;20119;-68
2023/10/23 00:29:09;;;;;;;2.15;1.45;;;12.50;77.70;;;;;;5066893;28;20033;-68
2023/10/23 00:31:34;;;;;;;1.23;1.10;;;12.40;77.80;;;;;;5069111;28;20050;-68
2023/10/23 00:34:00;;;;;;;2.47;1.55;;;12.40;77.90;;;;;;5079965;28;20157;-68
2023/10/23 00:36:26;;;;;;;2.35;1.40;;;12.40;77.80;;;;;;5065975;28;20067;-68
2023/10/23 00:38:51;;;;;;;2.80;1.45;;;12.30;77.80;;;;;;5066659;28;20024;-68
2023/10/23 00:41:17;;;;;;;1.90;1.63;;;12.30;77.90;;;;;;5072631;28;20036;-68
2023/10/23 00:43:43;;;;;;;2.65;1.88;;;12.30;77.90;;;;;;5069650;28;20029;-68
2023/10/23 00:46:15;;;;;;;2.45;1.50;;;12.30;77.90;;;;;;5066378;28;20040;-68
2023/10/23 00:48:42;;;;;;;1.70;1.23;;;12.30;77.90;;;;;;5063149;28;20043;-68
2023/10/23 00:51:11;;;;;;;1.48;1.15;;;12.20;77.90;;;;;;5071087;28;20526;-68
2023/10/23 00:53:38;;;;;;;2.28;1.92;;;12.30;78.00;;;;;;5065775;28;20040;-68
2023/10/23 00:56:06;;;;;;;5.72;2.08;;;12.30;78.00;;;;;;5068234;28;20027;-68
2023/10/23 00:58:37;;;;;;;1.92;1.33;;;12.20;77.90;;;;;;5069691;28;20025;-68
2023/10/23 01:01:04;;;;;;;2.30;1.60;;;12.20;78.00;;;;;;5060672;28;20391;-68
2023/10/23 01:03:29;;;;;;;2.80;1.50;;;12.20;77.90;;;;;;5074549;28;20382;-68
2023/10/23 01:05:55;;;;;;;4.70;2.10;;;12.20;78.00;;;;;;5070882;28;20036;-68
2023/10/23 01:08:21;;;;;;;3.70;1.90;;;12.10;78.00;;;;;;5060886;28;20039;-68
2023/10/23 01:10:47;;;;;;;3.47;2.13;;;12.10;78.10;;;;;;5075062;28;20143;-68
2023/10/23 01:13:14;;;;;;;2.42;1.90;;;12.10;78.00;;;;;;5068695;28;20108;-63
2023/10/23 01:15:39;;;;;;;3.95;1.52;;;12.10;78.00;;;;;;5068801;28;20030;-62
2023/10/23 01:18:06;;;;;;;2.53;1.85;;;12.10;78.00;;;;;;5064584;28;20032;-68
2023/10/23 01:20:32;;;;;;;2.00;1.60;;;12.10;78.00;;;;;;5071532;28;20032;-62
2023/10/23 01:22:59;;;;;;;2.03;1.52;;;12.00;78.00;;;;;;5069173;28;20074;-62
2023/10/23 01:25:26;;;;;;;5.15;1.30;;;12.00;78.10;;;;;;5060187;28;20319;-63
2023/10/23 01:27:52;;;;;;;2.20;1.02;;;12.00;78.10;;;;;;5065105;28;20071;-62
2023/10/23 01:30:18;;;;;;;4.13;1.55;;;12.00;78.10;;;;;;5068815;28;20039;-62
2023/10/23 01:32:44;;;;;;;2.03;1.25;;;12.00;78.20;;;;;;5073740;28;20029;-62
2023/10/23 01:35:10;;;;;;;3.95;1.98;;;12.10;78.30;;;;;;5048089;28;20429;-62
2023/10/23 01:37:36;;;;;;;2.25;1.60;;;12.10;78.40;;;;;;5073709;28;20025;-62
2023/10/23 01:40:04;;;;;;;1.67;1.35;;;12.10;78.50;;;;;;5065058;28;20040;-67
2023/10/23 01:42:32;;;;;;;9.68;2.10;;;12.20;78.60;;;;;;5071074;28;20040;-68
2023/10/23 01:44:58;;;;;;;2.80;1.95;;;12.20;78.80;;;;;;5055163;28;20143;-62
2023/10/23 01:47:24;;;;;;;2.97;1.55;;;12.20;78.90;;;;;;5065141;28;20468;-62
2023/10/23 01:49:50;;;;;;;2.40;1.67;;;12.20;79.10;;;;;;5066457;28;20155;-62
2023/10/23 01:52:17;;;;;;;1.60;1.38;;;12.20;79.20;;;;;;5071405;28;20111;-62
2023/10/23 01:54:45;;;;;;;3.80;1.83;;;12.30;79.30;;;;;;5070386;28;20071;-67
2023/10/23 01:57:14;;;;;;;2.20;1.60;;;12.30;79.40;;;;;;5064017;28;20074;-68
2023/10/23 01:59:40;;;;;;;2.65;1.67;;;12.30;79.30;;;;;;5069873;28;20479;-68
2023/10/23 02:02:06;;;;;;;3.25;1.90;;;12.40;79.50;;;;;;5069387;28;20170;-68
2023/10/23 02:04:32;;;;;;;2.97;1.98;;;12.40;79.50;;;;;;5069685;28;20060;-68
2023/10/23 02:06:58;;;;;;;4.22;2.13;;;12.40;79.70;;;;;;5065272;28;20056;-68
2023/10/23 02:09:23;;;;;;;2.22;1.75;;;12.40;79.70;;;;;;5070670;28;20039;-67
2023/10/23 02:11:49;;;;;;;1.73;1.60;;;12.40;79.80;;;;;;5068092;28;20465;-67
2023/10/23 02:14:15;;;;;;;2.60;1.77;;;12.50;80.50;;;;;;5069039;28;20093;-68
2023/10/23 02:16:41;;;;;;;2.97;1.67;;;12.50;80.00;;;;;;5066498;28;20024;-68
2023/10/23 02:19:08;;;;;;;1.80;1.40;;;12.50;80.10;;;;;;5065433;28;20510;-68
2023/10/23 02:21:34;;;;;;;1.80;1.40;;;12.50;80.20;;;;;;5068643;28;20033;-67
2023/10/23 02:24:00;;;;;;;2.10;1.50;;;12.60;80.20;;;;;;5061297;28;20029;-68
2023/10/23 02:26:26;;;;;;;2.10;1.58;;;12.60;80.20;;;;;;5067130;28;20033;-68
2023/10/23 02:28:52;;;;;;;1.98;1.42;;;12.70;80.30;;;;;;5069479;28;20029;-68
2023/10/23 02:31:17;;;;;;;1.67;1.40;;;12.70;80.40;;;;;;5063213;28;20499;-68
2023/10/23 02:33:43;;;;;;;3.72;2.08;;;12.70;80.40;;;;;;5071991;28;20032;-68
2023/10/23 02:36:09;;;;;;;3.13;1.90;;;12.70;80.30;;;;;;5060707;28;20078;-68
2023/10/23 02:38:34;;;;;;;3.78;2.08;;;12.80;80.40;;;;;;5068128;28;20462;-68
2023/10/23 02:41:00;;;;;;;2.72;2.15;;;12.80;80.50;;;;;;5063939;28;20032;-68
2023/10/23 02:43:26;;;;;;;3.15;2.30;;;12.80;80.50;;;;;;5073285;28;20059;-68
2023/10/23 02:45:52;;;;;;;6.13;2.50;;;12.80;80.60;;;;;;5055704;28;20033;-68
2023/10/23 02:48:17;;;;;;;4.30;2.13;;;12.80;80.70;;;;;;5065798;28;20033;-68
2023/10/23 02:50:56;;;;;;;4.82;2.42;;;12.80;80.80;;;;;;5066780;28;20033;-68
2023/10/23 02:53:22;;;;;;;5.18;3.33;;;12.90;80.80;;;;;;5068861;28;20025;-68
2023/10/23 02:55:48;;;;;;;4.85;3.00;;;12.80;80.90;;;;;;5069896;28;20017;-68
2023/10/23 02:58:15;;;;;;;5.07;2.65;;;12.80;80.90;;;;;;5068073;28;20024;-68
2023/10/23 03:00:42;;;;;;;3.80;2.40;;;12.80;80.90;;;;;;5064319;28;20074;-68
2023/10/23 03:03:08;;;;;;;10.02;3.47;;;12.80;80.80;;;;;;5069922;28;20472;-68
2023/10/23 03:05:34;;;;;;;5.25;3.10;;;12.80;80.90;;;;;;5068070;28;20025;-68
2023/10/23 03:08:00;;;;;;;3.97;2.88;;;12.80;81.00;;;;;;5064395;28;20108;-68
2023/10/23 03:10:26;;;;;;;4.22;3.17;;;12.80;81.00;;;;;;5068016;28;20535;-68
2023/10/23 03:12:52;;;;;;;4.53;3.20;;;12.80;80.90;;;;;;5074901;28;20441;-68
2023/10/23 03:15:18;;;;;;;3.95;2.33;;;12.80;81.00;;;;;;5073716;28;20365;-68
2023/10/23 03:17:44;;;;;;;6.75;3.35;;;12.80;81.20;;;;;;5074167;28;20020;-68
2023/10/23 03:20:11;;;;;;;3.90;3.30;;;12.70;81.20;;;;;;5071174;28;20158;-68
2023/10/23 03:22:36;;;;;;;5.60;2.38;;;12.70;81.50;;;;;;5070912;28;20037;-68
2023/10/23 03:25:03;;;;;;;7.97;2.88;;;12.70;81.50;;;;;;5074216;28;20507;-68
2023/10/23 03:27:29;;;;;;;5.05;3.00;;;12.80;81.50;;;;;;5076753;28;20486;-68
2023/10/23 03:29:54;;;;;;;2.85;2.22;;;12.80;81.50;;;;;;5073592;28;20121;-68
2023/10/23 03:32:20;;;;;;;3.35;2.30;;;12.80;81.40;;;;;;5062397;28;20037;-68
2023/10/23 03:34:46;;;;;;;3.42;2.40;;;12.80;81.40;;;;;;5066955;28;20017;-68
2023/10/23 03:37:11;;;;;;;3.10;2.17;;;12.80;81.40;;;;;;5064030;28;20033;-68
2023/10/23 03:39:37;;;;;;;7.40;2.30;;;12.80;81.50;;;;;;5069931;28;20038;-68
2023/10/23 03:42:03;;;;;;;3.30;2.13;;;12.80;81.50;;;;;;5074286;28;20060;-68
2023/10/23 03:44:28;;;;;;;2.65;2.42;;;12.80;81.60;;;;;;5079163;28;20044;-68
2023/10/23 03:46:54;;;;;;;5.55;2.78;;;12.90;81.70;;;;;;5068949;28;20013;-68
2023/10/23 03:49:20;;;;;;;5.15;3.10;;;12.90;81.80;;;;;;5070894;28;20040;-68
2023/10/23 03:51:45;;;;;;;3.13;1.98;;;12.90;81.90;;;;;;5063048;28;20108;-68
2023/10/23 03:54:11;;;;;;;2.75;2.10;;;12.90;81.90;;;;;;5066662;28;20050;-68
2023/10/23 03:56:37;;;;;;;3.70;2.65;;;12.90;81.90;;;;;;5067339;28;20310;-62
2023/10/23 03:59:03;;;;;;;4.05;3.03;;;12.90;81.90;;;;;;5067894;28;20439;-62
2023/10/23 04:01:29;;;;;;;6.88;3.42;;;12.90;82.00;;;;;;5069158;28;20068;-62
2023/10/23 04:03:55;;;;;;;5.60;2.22;;;12.90;82.10;;;;;;5071792;28;20409;-62
2023/10/23 04:06:20;;;;;;;2.72;1.65;;;12.90;82.10;;;;;;5073560;28;20028;-62
2023/10/23 04:08:46;;;;;;;3.47;2.40;;;13.00;82.30;;;;;;5065926;28;20123;-62
2023/10/23 04:11:15;;;;;;;2.47;1.95;;;13.00;82.30;;;;;;5075093;28;20044;-62
2023/10/23 04:13:40;;;;;;;3.03;1.92;;;13.00;82.30;;;;;;5069318;28;20052;-62
2023/10/23 04:16:07;;;;;;;3.38;2.28;;;13.00;82.30;;;;;;5075425;28;20021;-62
2023/10/23 04:18:33;;;;;;;5.22;1.95;;;13.00;82.30;;;;;;5064448;28;20054;-62
2023/10/23 04:21:02;;;;;;;2.65;1.70;;;13.00;82.30;;;;;;5069257;28;20024;-62
2023/10/23 04:23:28;;;;;;;2.20;1.80;;;13.00;82.40;;;;;;5066775;28;20398;-62
2023/10/23 04:25:55;;;;;;;3.45;2.47;;;13.00;82.50;;;;;;5066528;28;20024;-62
2023/10/23 04:28:21;;;;;;;3.15;2.35;;;13.00;82.50;;;;;;5062600;28;20029;-63
2023/10/23 04:30:47;;;;;;;2.78;2.00;;;13.00;82.50;;;;;;5066322;28;20028;-62
2023/10/23 04:33:16;;;;;;;3.22;2.13;;;13.10;82.60;;;;;;5062327;28;20035;-63
2023/10/23 04:35:41;;;;;;;2.85;2.03;;;13.10;82.70;;;;;;5063760;28;20032;-63
2023/10/23 04:38:08;;;;;;;3.33;2.45;;;13.10;82.80;;;;;;5065386;28;20094;-68
2023/10/23 04:40:34;;;;;;;3.80;2.35;;;13.00;82.90;;;;;;5069951;28;20108;-68
2023/10/23 04:42:59;;;;;;;2.75;1.73;;;13.00;82.90;;;;;;5072372;28;20449;-68
2023/10/23 04:45:25;;;;;;;2.63;1.88;;;13.00;83.00;;;;;;5086103;28;20048;-68
2023/10/23 04:47:50;;;;;;;2.88;1.88;;;13.00;83.00;;;;;;5071694;28;20060;-68
2023/10/23 04:50:16;;;;;;;3.45;2.13;;;13.10;83.10;;;;;;5067354;28;20056;-68
2023/10/23 04:52:42;;;;;;;3.83;2.42;;;13.10;83.10;;;;;;5071928;28;20036;-68
2023/10/23 04:55:08;;;;;;;2.60;1.77;;;13.10;83.20;;;;;;5068092;28;20028;-63
2023/10/23 04:57:34;;;;;;;2.22;1.75;;;13.10;83.20;;;;;;5065593;28;20089;-63
2023/10/23 05:00:00;;;;;;;1.48;1.38;;;13.10;83.10;;;;;;5065703;28;20024;-63
2023/10/23 05:02:25;;;;;;;2.80;2.20;;;13.10;83.10;;;;;;5067704;28;20093;-63
2023/10/23 05:04:51;;;;;;;2.63;1.67;;;13.10;83.10;;;;;;5069216;28;20025;-63
2023/10/23 05:07:16;;;;;;;2.67;1.95;;;13.10;83.10;;;;;;5050450;28;20352;-63
2023/10/23 05:09:42;;;;;;;2.22;1.60;;;13.10;83.10;;;;;;5069130;28;20076;-63
2023/10/23 05:12:08;;;;;;;4.57;2.00;;;13.20;83.10;;;;;;5066462;28;20049;-63
2023/10/23 05:14:34;;;;;;;3.60;1.98;;;13.10;83.10;;;;;;5070732;28;20062;-63
2023/10/23 05:17:00;;;;;;;3.30;2.15;;;13.20;83.10;;;;;;5071646;28;20052;-63
2023/10/23 05:19:25;;;;;;;4.82;2.10;;;13.20;83.10;;;;;;5066628;28;20029;-63
2023/10/23 05:21:51;;;;;;;3.40;2.30;;;13.20;83.10;;;;;;5075204;28;20039;-63
2023/10/23 05:24:17;;;;;;;3.95;2.20;;;13.20;83.20;;;;;;5074608;28;20066;-63
2023/10/23 05:26:42;;;;;;;3.28;1.95;;;13.20;83.20;;;;;;5075303;28;20028;-63
2023/10/23 05:29:08;;;;;;;4.97;2.50;;;13.20;83.30;;;;;;5074224;28;20064;-63
2023/10/23 05:31:33;;;;;;;3.67;2.17;;;13.10;83.40;;;;;;5075383;28;20035;-62
2023/10/23 05:33:59;;;;;;;3.28;2.15;;;13.20;83.40;;;;;;5073566;28;20490;-68
2023/10/23 05:36:25;;;;;;;3.55;2.22;;;13.20;83.40;;;;;;5076355;28;20027;-68
2023/10/23 05:38:51;;;;;;;5.28;2.38;;;13.20;83.30;;;;;;5066730;28;20035;-68
2023/10/23 05:41:16;;;;;;;4.38;2.67;;;13.20;83.30;;;;;;5070904;28;20035;-68
2023/10/23 05:43:44;;;;;;;3.92;2.60;;;13.20;83.40;;;;;;5072709;28;20373;-68
2023/10/23 05:46:09;;;;;;;6.45;2.50;;;13.20;83.50;;;;;;5072959;28;20533;-68
2023/10/23 05:48:36;;;;;;;4.75;2.83;;;13.20;83.50;;;;;;5073319;28;20112;-68
2023/10/23 05:51:05;;;;;;;3.22;2.40;;;13.20;83.60;;;;;;5072148;28;20118;-68
2023/10/23 05:53:32;;;;;;;3.67;2.40;;;13.20;83.60;;;;;;5072123;28;20111;-68
2023/10/23 05:56:03;;;;;;;5.93;2.40;;;13.20;83.60;;;;;;5072238;28;20037;-68
2023/10/23 05:58:29;;;;;;;3.50;2.10;;;13.20;83.60;;;;;;5072579;28;20036;-68
2023/10/23 06:00:55;;;;;;;3.78;2.33;;;13.20;83.60;;;;;;5079297;28;20031;-62
2023/10/23 06:03:21;;;;;;;2.72;1.80;;;13.20;83.60;;;;;;5068790;28;20430;-68
2023/10/23 06:05:46;;;;;;;3.38;2.15;;;13.20;83.70;;;;;;5074574;28;20024;-68
2023/10/23 06:08:12;;;;;;;2.33;1.55;;;13.20;83.80;;;;;;5075926;28;20021;-69
2023/10/23 06:10:44;;;;;;;2.10;1.55;;;13.20;83.80;;;;;;5071979;28;20435;-69
2023/10/23 06:13:11;;;;;;;3.13;1.85;;;13.20;83.70;;;;;;5073529;28;20055;-69
2023/10/23 06:15:37;;;;;;;3.03;1.80;;;13.20;83.80;;;;;;5066935;28;20028;-69
2023/10/23 06:18:03;;;;;;;19.77;2.42;;;13.20;83.80;;;;;;5073087;28;20055;-69
2023/10/23 06:20:28;;;;;;;2.35;1.52;;;13.20;83.80;;;;;;5071384;28;20037;-69
2023/10/23 06:22:54;;;;;;;2.25;1.90;;;13.20;83.80;;;;;;5070762;28;20713;-69
2023/10/23 06:25:20;;;;;;;2.45;1.63;;;13.20;83.80;;;;;;5072872;28;20072;-69
2023/10/23 06:27:45;;;;;;;3.20;2.03;;;13.20;83.70;;;;;;5069621;28;20074;-69
2023/10/23 06:30:11;;;;;;;3.42;1.73;;;13.20;83.70;;;;;;5070976;28;20028;-69
2023/10/23 06:32:37;;;;;;;2.22;1.88;;;13.20;83.70;;;;;;5068789;28;20091;-69
2023/10/23 06:35:04;;;;;;;2.80;1.50;;;13.20;83.80;;;;;;5063657;28;20056;-69
2023/10/23 06:37:32;;;;;;;3.67;1.95;;;13.20;83.90;;;;;;5068126;28;20506;-69
2023/10/23 06:39:58;;;;;;;2.50;1.65;;;13.20;83.90;;;;;;5072453;28;20028;-69
2023/10/23 06:42:27;;;;;;;3.33;2.00;;;13.20;84.00;;;;;;5076760;28;20042;-63
2023/10/23 06:44:53;;;;;;;2.20;1.70;;;13.20;84.00;;;;;;5070061;28;20040;-63
2023/10/23 06:47:18;;;;;;;11.88;2.33;;;13.10;84.00;;;;;;5069214;28;20032;-63
2023/10/23 06:49:44;;;;;;;6.28;2.42;;;13.10;84.10;;;;;;5067456;28;20043;-63
2023/10/23 06:52:10;;;;;;;2.70;1.40;;;13.10;84.10;;;;;;5057984;28;20387;-63
2023/10/23 06:54:36;;;;;;;2.28;1.20;;;13.20;84.10;;;;;;5061899;28;20035;-63
2023/10/23 06:57:08;;;;;;;1.52;1.42;;;13.20;84.10;;;;;;5057135;28;20838;-63
2023/10/23 06:59:35;;;;;;;2.97;1.67;;;13.10;84.70;;;;;;5064235;28;20036;-63
2023/10/23 07:02:01;;;;;;;2.00;1.35;;;13.20;84.10;;;;;;5068093;28;20111;-63
2023/10/23 07:04:27;;;;;;;2.00;1.65;;;13.10;84.10;;;;;;5060830;28;20158;-64
2023/10/23 07:06:53;;;;;;;1.67;1.30;;;13.10;84.20;;;;;;5056435;28;20356;-64
2023/10/23 07:09:19;;;;;;;2.08;1.70;;;13.10;84.20;;;;;;5069177;28;20032;-69
2023/10/23 07:11:51;;;;;;;2.95;1.50;;;13.10;84.70;;;;;;5072123;28;20471;-69
2023/10/23 07:14:17;;;;;;;2.78;1.85;;;13.10;84.10;;;;;;5067192;28;20028;-70
2023/10/23 07:16:45;;;;;;;3.30;1.38;;;13.10;84.20;;;;;;5065517;28;20388;-71
2023/10/23 07:19:11;;;;;;;4.22;1.85;;;13.10;84.20;;;;;;5067643;28;20472;-71
2023/10/23 07:21:37;;;;;;;2.92;1.88;;;13.10;84.10;;;;;;5069892;28;20454;-71
2023/10/23 07:24:03;;;;;;;1.52;1.38;;;13.10;84.10;;;;;;5067367;28;20029;-70
2023/10/23 07:26:29;;;;;;;1.30;1.20;;;13.10;84.10;;;;;;5067395;28;20033;-68
2023/10/23 07:28:55;;;;;;;2.90;1.63;;;13.10;84.20;;;;;;5055966;28;20050;-71
2023/10/23 07:31:21;;;;;;;5.78;2.03;;;13.10;84.20;;;;;;5072570;28;20523;-68
2023/10/23 07:33:47;;;;;;;4.88;1.70;;;13.10;84.20;;;;;;5064975;28;20031;-69
2023/10/23 07:36:14;;;;;;;2.97;2.03;;;13.10;84.20;;;;;;5069984;28;20105;-67
2023/10/23 07:38:44;;;;;;;2.38;1.45;;;13.10;84.20;;;;;;5059460;28;20033;-67
2023/10/23 07:41:11;;;;;;;2.40;1.42;;;13.10;84.10;;;;;;5064074;28;20032;-67
2023/10/23 07:43:36;;;;;;;2.30;1.50;;;13.10;84.20;;;;;;5056974;28;20036;-70
2023/10/23 07:46:08;;;;;;;2.65;1.73;;;13.10;84.20;;;;;;5059932;28;20116;-69
2023/10/23 07:48:34;;;;;;;2.63;1.95;;;13.10;84.10;;;;;;5060170;28;20024;-69
2023/10/23 07:51:00;;;;;;;29.00;1.90;;;13.10;84.10;;;;;;5062209;28;20036;-69
2023/10/23 07:53:26;;;;;;;2.30;1.75;;;13.10;84.00;;;;;;5062376;28;20062;-69
2023/10/23 07:55:52;;;;;;;2.70;1.63;;;13.10;84.10;;;;;;5057103;28;20040;-69
2023/10/23 07:58:18;;;;;;;2.03;1.52;;;13.10;84.10;;;;;;5064097;28;20024;-63
2023/10/23 08:00:43;;;;;;;2.88;1.70;;;13.10;84.00;;;;;;5065630;28;20029;-64
2023/10/23 08:03:10;;;;;;;2.30;1.50;;;13.10;84.00;;;;;;5073751;28;20032;-63
2023/10/23 08:05:36;;;;;;;2.75;1.83;;;13.10;84.00;;;;;;5067950;28;20434;-64
2023/10/23 08:08:03;;;;;;;2.33;1.38;;;13.20;84.00;;;;;;5074333;28;20039;-64
2023/10/23 08:10:29;;;;;;;2.72;1.65;;;13.20;84.00;;;;;;5062905;28;20078;-65
2023/10/23 08:12:54;;;;;;;3.28;1.85;;;13.20;84.00;;;;;;5066769;28;20072;-66
2023/10/23 08:15:20;;;;;;;1.90;1.27;;;13.20;84.10;;;;;;5066615;28;20036;-65
2023/10/23 08:17:46;;;;;;;2.80;1.63;;;13.20;84.10;;;;;;5053486;28;20017;-65
2023/10/23 08:20:11;;;;;;;7.93;2.28;;;13.20;84.10;;;;;;5068630;28;20021;-64
2023/10/23 08:22:37;;;;;;;3.40;1.70;;;13.20;84.10;;;;;;5055863;28;20059;-64
2023/10/23 08:25:04;;;;;;;6.40;2.65;;;13.20;84.00;;;;;;5080042;28;20438;-64
2023/10/23 08:27:30;;;;;;;2.28;1.50;;;13.10;84.00;;;;;;5057714;28;20059;-64
2023/10/23 08:29:56;;;;;;;2.70;1.98;;;13.20;84.00;;;;;;5053564;28;20051;-64
2023/10/23 08:32:21;;;;;;;15.40;1.48;;;13.10;84.20;;;;;;5058156;28;20487;-63
2023/10/23 08:34:47;;;;;;;1.58;1.23;;;13.10;84.10;;;;;;5066646;28;20043;-64
2023/10/23 08:37:14;;;;;;;2.08;1.30;;;13.10;84.20;;;;;;5059311;28;20101;-70
2023/10/23 08:39:40;;;;;;;1.90;1.27;;;13.10;84.20;;;;;;5070061;28;20020;-70
2023/10/23 08:42:05;;;;;;;1.98;1.60;;;13.10;84.20;;;;;;5058405;28;20091;-70
2023/10/23 08:44:31;;;;;;;2.17;1.42;;;13.10;84.20;;;;;;5069244;28;20028;-64
2023/10/23 08:46:58;;;;;;;4.80;1.40;;;13.10;84.20;;;;;;5066533;28;20434;-69
2023/10/23 08:49:24;;;;;;;1.92;1.42;;;13.10;84.20;;;;;;5074731;28;20032;-64
2023/10/23 08:51:53;;;;;;;2.17;1.42;;;13.10;84.20;;;;;;5081649;28;20089;-64
2023/10/23 08:54:21;;;;;;;1.83;1.30;;;13.10;84.20;;;;;;5074452;28;20051;-64
2023/10/23 08:56:56;;;;;;;2.83;1.80;;;13.10;84.30;;;;;;5074498;28;20507;-64
2023/10/23 08:59:22;;;;;;;1.95;1.77;;;13.10;84.30;;;;;;5075397;28;20059;-64
2023/10/23 09:01:48;;;;;;;1.90;1.45;;;13.10;84.30;;;;;;5062286;28;20057;-64
2023/10/23 09:04:14;;;;;;;20.23;3.03;;;13.10;84.30;;;;;;5074836;28;20063;-64
2023/10/23 09:06:40;;;;;;;7.30;2.65;;;13.20;84.20;;;;;;5074013;28;20047;-64
2023/10/23 09:09:06;;;;;;;3.03;1.92;;;13.20;84.40;;;;;;5067398;28;21219;-64
2023/10/23 09:11:38;;;;;;;3.95;2.30;;;13.20;84.30;;;;;;5070774;28;20045;-64
2023/10/23 09:14:04;;;;;;;3.33;2.13;;;13.30;84.20;;;;;;5065345;28;20021;-64
2023/10/23 09:16:30;;;;;;;3.17;2.20;;;13.30;84.20;;;;;;5064512;28;20032;-64
2023/10/23 09:18:56;;;;;;;5.03;2.45;;;13.40;84.20;;;;;;5067724;28;20020;-64
2023/10/23 09:21:22;;;;;;;5.30;2.92;;;13.50;84.20;;;;;;5062716;28;20025;-64
2023/10/23 09:23:58;;;;;;;6.45;2.72;;;13.50;84.10;;;;;;5067206;28;20111;-64
2023/10/23 09:26:24;;;;;;;5.65;2.83;;;13.60;84.10;;;;;;5062454;28;20044;-64
2023/10/23 09:28:52;;;;;;;4.60;2.70;;;13.60;84.00;;;;;;5065552;28;20408;-64
2023/10/23 09:31:19;;;;;;;4.05;3.38;;;13.60;84.10;;;;;;5070384;28;20067;-64
2023/10/23 09:33:49;;;;;;;5.10;3.60;;;13.60;84.10;;;;;;5076308;28;20028;-70
2023/10/23 09:36:16;;;;;;;5.50;3.38;;;13.60;84.20;;;;;;5064254;28;20090;-70
2023/10/23 09:38:42;;;;;;;4.25;2.47;;;13.70;84.20;;;;;;5072631;28;20530;-70
2023/10/23 09:41:12;;;;;;;4.20;2.92;;;13.70;84.20;;;;;;5066439;28;20024;-70
2023/10/23 09:43:47;;;;;;;5.72;3.70;;;13.80;84.20;;;;;;5058442;28;20611;-70
2023/10/23 09:46:14;;;;;;;12.02;3.95;;;13.90;84.10;;;;;;5062285;28;20616;-70
2023/10/23 09:48:44;;;;;;;6.28;3.38;;;14.00;84.00;;;;;;5067851;28;20044;-70
2023/10/23 09:51:18;;;;;;;6.22;3.55;;;14.10;83.90;;;;;;5060980;28;20039;-70
2023/10/23 09:53:58;;;;;;;6.18;3.15;;;14.10;83.80;;;;;;5064775;28;20029;-70
2023/10/23 09:56:28;;;;;;;5.88;3.05;;;14.20;83.80;;;;;;5075133;28;20028;-70
2023/10/23 09:59:00;;;;;;;7.03;3.58;;;14.20;83.90;;;;;;5067166;28;20031;-71
2023/10/23 10:01:36;;;;;;;7.93;3.65;;;14.30;83.60;;;;;;5064941;28;20146;-70
2023/10/23 10:04:08;;;;;;;6.32;3.40;;;14.40;83.60;;;;;;5068859;28;20032;-70
2023/10/23 10:06:37;;;;;;;3.72;2.83;;;14.40;83.50;;;;;;5068275;28;20387;-64
2023/10/23 10:09:08;;;;;;;5.40;3.80;;;14.40;83.50;;;;;;5068571;28;20475;-64
2023/10/23 10:11:34;;;;;;;5.05;3.38;;;14.50;83.40;;;;;;5068413;28;20049;-64
2023/10/23 10:14:00;;;;;;;5.97;3.25;;;14.70;83.20;;;;;;5072105;28;20049;-64
2023/10/23 10:16:26;;;;;;;3.67;3.08;;;14.80;83.10;;;;;;5065516;28;20098;-64
2023/10/23 10:18:53;;;;;;;3.53;2.50;;;14.90;82.80;;;;;;5068652;28;20037;-64
2023/10/23 10:21:22;;;;;;;4.43;2.85;;;15.00;82.70;;;;;;5061211;28;20036;-71
2023/10/23 10:23:48;;;;;;;8.15;3.60;;;15.10;82.60;;;;;;5067407;28;20031;-71
2023/10/23 10:26:14;;;;;;;8.07;4.20;;;15.20;82.50;;;;;;5062281;28;20036;-70
2023/10/23 10:28:40;;;;;;;6.95;3.63;;;15.30;82.40;;;;;;5053247;28;20036;-70
2023/10/23 10:31:06;;;;;;;4.55;2.53;;;15.30;82.30;;;;;;5051124;28;20518;-71
2023/10/23 10:33:32;;;;;;;3.53;2.67;;;15.30;82.20;;;;;;5061351;28;20166;-71
2023/10/23 10:36:00;;;;;;;5.45;3.47;;;15.30;82.10;;;;;;5057044;28;20108;-70
2023/10/23 10:38:29;;;;;;;5.03;3.08;;;15.40;82.20;;;;;;5059747;28;20024;-64
2023/10/23 10:41:14;;;;;;;3.20;2.00;;;15.40;82.10;;;;;;5072610;28;20090;-64
2023/10/23 10:43:41;;;;;;;2.88;2.33;;;15.40;82.20;;;;;;5058719;28;20040;-64
2023/10/23 10:46:26;;;;;;;3.40;2.35;;;15.50;82.10;;;;;;5063611;28;20028;-64
2023/10/23 10:48:55;;;;;;;2.83;1.80;;;15.70;81.80;;;;;;5073107;28;20029;-64
2023/10/23 10:51:26;;;;;;;4.05;2.25;;;15.70;81.70;;;;;;5067787;28;20084;-64
2023/10/23 10:54:11;;;;;;;3.92;2.58;;;15.80;81.50;;;;;;5056000;28;20029;-64
2023/10/23 10:56:37;;;;;;;3.08;2.22;;;15.90;81.20;;;;;;5086218;28;20028;-64
2023/10/23 10:59:04;;;;;;;3.38;2.53;;;16.00;81.10;;;;;;5068208;28;20385;-64
2023/10/23 11:01:31;;;;;;;3.20;1.80;;;16.10;81.00;;;;;;5070920;28;20056;-64
2023/10/23 11:03:56;;;;;;;4.72;1.58;;;16.20;80.90;;;;;;5067794;28;20028;-64
2023/10/23 11:06:24;;;;;;;8.82;2.20;;;16.40;80.70;;;;;;5067918;28;20528;-64
2023/10/23 11:08:51;;;;;;;6.40;3.00;;;16.40;80.50;;;;;;5070625;28;20467;-64
2023/10/23 11:11:17;;;;;;;5.00;3.45;;;16.50;80.30;;;;;;5080565;28;20523;-64
2023/10/23 11:13:43;;;;;;;5.95;2.60;;;16.50;80.10;;;;;;5078548;28;20036;-64
2023/10/23 11:16:11;;;;;;;4.18;3.00;;;16.60;80.10;;;;;;5075696;28;20029;-64
2023/10/23 11:18:37;;;;;;;4.60;3.00;;;16.60;80.10;;;;;;5048309;28;20024;-64
2023/10/23 11:21:05;;;;;;;5.18;3.42;;;16.60;80.00;;;;;;5050027;28;20068;-64
2023/10/23 11:23:31;;;;;;;6.72;3.08;;;16.60;79.90;;;;;;5063458;28;20104;-64
2023/10/23 11:25:57;;;;;;;5.25;3.30;;;16.50;79.80;;;;;;5051994;28;20419;-64
2023/10/23 11:28:24;;;;;;;5.38;3.15;;;16.50;79.90;;;;;;5063586;28;20367;-64
2023/10/23 11:31:01;;;;;;;4.00;2.53;;;16.60;79.80;;;;;;5065296;28;20032;-64
2023/10/23 11:33:27;;;;;;;5.97;3.50;;;16.60;79.80;;;;;;5057945;28;20102;-64
2023/10/23 11:35:53;;;;;;;5.93;2.78;;;16.70;79.70;;;;;;5080988;28;20368;-70
2023/10/23 11:38:20;;;;;;;5.97;3.33;;;16.70;79.50;;;;;;5060334;28;20035;-70
2023/10/23 11:40:46;;;;;;;4.03;2.88;;;16.70;79.30;;;;;;5070630;28;20083;-70
2023/10/23 11:43:15;;;;;;;4.50;3.20;;;16.70;79.00;;;;;;5061161;28;20032;-70
2023/10/23 11:45:44;;;;;;;5.97;3.10;;;16.70;79.10;;;;;;5062807;28;20039;-70
2023/10/23 11:48:12;;;;;;;7.75;2.50;;;16.80;79.00;;;;;;5067184;28;20028;-70
2023/10/23 11:50:39;;;;;;;4.57;2.65;;;16.80;78.90;;;;;;5071617;28;20082;-70
2023/10/23 11:53:05;;;;;;;3.63;2.08;;;16.90;78.80;;;;;;5068581;28;20086;-70
2023/10/23 11:55:31;;;;;;;3.50;1.92;;;16.90;78.70;;;;;;5069099;28;20020;-70
2023/10/23 11:57:57;;;;;;;6.25;2.42;;;16.90;78.50;;;;;;5056475;28;21204;-70
2023/10/23 12:00:23;;;;;;;3.25;1.58;;;16.90;78.50;;;;;;5065363;28;20054;-70
2023/10/23 12:02:50;;;;;;;7.07;2.22;;;16.90;78.50;;;;;;5063865;28;20047;-70
2023/10/23 12:05:18;;;;;;;3.95;1.80;;;16.90;78.50;;;;;;5063345;28;20030;-70
2023/10/23 12:07:53;;;;;;;2.38;1.83;;;16.90;78.30;;;;;;5075986;28;20037;-70
2023/10/23 12:10:20;;;;;;;2.03;1.00;;;17.00;78.40;;;;;;5056821;28;20028;-70
2023/10/23 12:12:47;;;;;;;1.60;1.20;;;17.10;78.30;;;;;;5061805;28;20048;-70
2023/10/23 12:15:16;;;;;;;2.65;1.33;;;17.20;78.20;;;;;;5062227;28;20052;-70
2023/10/23 12:17:42;;;;;;;4.05;1.55;;;17.30;78.00;;;;;;5068121;28;20035;-70
2023/10/23 12:20:10;;;;;;;6.03;2.45;;;17.40;77.50;;;;;;5067735;28;20098;-70
2023/10/23 12:22:47;;;;;;;3.30;1.58;;;17.40;77.00;;;;;;5063004;28;20033;-70
2023/10/23 12:25:13;;;;;;;6.88;2.13;;;17.50;77.00;;;;;;5071923;28;20512;-70
2023/10/23 12:27:40;;;;;;;1.33;1.20;;;17.60;76.60;;;;;;5068408;28;20055;-70
2023/10/23 12:30:08;;;;;;;2.85;1.30;;;17.70;76.40;;;;;;5063229;28;20040;-70
2023/10/23 12:32:35;;;;;;;1.95;1.73;;;17.90;76.30;;;;;;5058951;28;20036;-70
2023/10/23 12:35:03;;;;;;;1.75;1.48;;;17.90;75.90;;;;;;5066981;28;20776;-70
2023/10/23 12:37:30;;;;;;;5.32;0.95;;;17.90;76.00;;;;;;5057232;28;20383;-70
2023/10/23 12:39:58;;;;;;;3.92;1.33;;;17.90;76.00;;;;;;5064178;28;20441;-70
2023/10/23 12:42:24;;;;;;;0.77;0.73;;;17.80;76.00;;;;;;5066833;28;20036;-70
2023/10/23 12:44:50;;;;;;;1.40;1.30;;;17.80;76.20;;;;;;5059383;28;20411;-62